createdAt,value
2023-05-18T00:00:05.669Z,58.55
2023-05-18T00:02:38.397Z,58.58
2023-05-18T00:05:10.595Z,58.36
2023-05-18T00:07:41.296Z,58.53
2023-05-18T00:10:13.520Z,58.61
2023-05-18T00:12:43.451Z,58.88
2023-05-18T00:15:13.906Z,59.12
2023-05-18T00:17:46.535Z,59.26
2023-05-18T00:20:18.245Z,59.25
2023-05-18T00:22:48.411Z,59.45
2023-05-18T00:25:18.601Z,59.18
2023-05-18T00:27:50.148Z,59.13
2023-05-18T00:30:20.203Z,59.17
2023-05-18T00:32:52.815Z,59.18
2023-05-18T00:35:22.990Z,59.12
2023-05-18T00:37:53.223Z,59.37
2023-05-18T00:40:24.688Z,59.35
2023-05-18T00:42:54.684Z,59.39
2023-05-18T00:45:24.628Z,59.54
2023-05-18T00:47:57.215Z,60.11
2023-05-18T00:50:27.305Z,59.55
2023-05-18T00:52:57.731Z,59.46
2023-05-18T00:55:28.346Z,59.56
2023-05-18T00:58:02.605Z,59.53
2023-05-18T01:00:34.048Z,59.56
2023-05-18T01:03:10.578Z,59.80
2023-05-18T01:05:41.311Z,59.69
2023-05-18T01:08:11.740Z,59.88
2023-05-18T01:10:46.626Z,60.14
2023-05-18T01:13:23.359Z,60.14
2023-05-18T01:16:00.958Z,60.45
2023-05-18T01:18:43.837Z,60.00
2023-05-18T01:21:25.752Z,60.42
2023-05-18T01:24:07.727Z,61.18
2023-05-18T01:26:45.586Z,61.15
2023-05-18T01:29:18.735Z,60.80
2023-05-18T01:31:48.642Z,60.96
2023-05-18T01:34:18.637Z,60.87
2023-05-18T01:36:48.523Z,60.98
2023-05-18T01:39:18.876Z,60.82
2023-05-18T01:42:01.607Z,61.54
2023-05-18T01:44:36.830Z,60.97
2023-05-18T01:47:13.598Z,61.40
2023-05-18T01:49:49.312Z,61.22
2023-05-18T01:52:23.474Z,61.80
2023-05-18T01:54:58.112Z,61.76
2023-05-18T01:57:32.624Z,62.28
2023-05-18T02:00:04.617Z,61.96
2023-05-18T02:02:34.742Z,62.20
2023-05-18T02:05:05.777Z,62.30
2023-05-18T02:07:35.835Z,62.29
2023-05-18T02:10:05.901Z,62.71
2023-05-18T02:12:38.649Z,63.05
2023-05-18T02:15:10.014Z,62.61
2023-05-18T02:17:40.514Z,63.17
2023-05-18T02:20:12.282Z,62.84
2023-05-18T02:22:42.431Z,62.97
2023-05-18T02:25:13.171Z,63.06
2023-05-18T02:27:46.084Z,63.23
2023-05-18T02:30:16.984Z,63.40
2023-05-18T02:32:47.516Z,63.60
2023-05-18T02:35:18.687Z,63.48
2023-05-18T02:37:50.228Z,63.46
2023-05-18T02:40:20.459Z,64.42
2023-05-18T02:42:53.035Z,64.14
2023-05-18T02:45:23.457Z,63.82
2023-05-18T02:47:53.430Z,64.17
2023-05-18T02:50:23.704Z,64.23
2023-05-18T02:52:56.206Z,64.33
2023-05-18T02:55:26.263Z,64.71
2023-05-18T02:58:00.333Z,64.77
2023-05-18T03:00:32.020Z,64.72
2023-05-18T03:03:03.303Z,64.77
2023-05-18T03:05:33.475Z,65.03
2023-05-18T03:08:03.586Z,65.23
2023-05-18T03:10:33.642Z,65.50
2023-05-18T03:13:06.449Z,65.32
2023-05-18T03:15:37.973Z,65.55
2023-05-18T03:18:08.546Z,65.67
2023-05-18T03:20:38.723Z,65.88
2023-05-18T03:23:08.940Z,65.52
2023-05-18T03:25:39.078Z,66.05
2023-05-18T03:28:11.827Z,66.05
2023-05-18T03:30:41.923Z,66.01
2023-05-18T03:33:12.455Z,66.16
2023-05-18T03:35:42.686Z,66.06
2023-05-18T03:38:12.736Z,66.13
2023-05-18T03:40:42.840Z,66.23
2023-05-18T03:43:15.643Z,66.51
2023-05-18T03:45:45.804Z,66.45
2023-05-18T03:48:16.169Z,66.66
2023-05-18T03:50:46.722Z,66.80
2023-05-18T03:53:19.437Z,66.85
2023-05-18T03:55:49.750Z,66.92
2023-05-18T03:58:23.693Z,67.02
2023-05-18T04:00:53.774Z,67.06
2023-05-18T04:03:25.299Z,67.14
2023-05-18T04:05:56.290Z,67.22
2023-05-18T04:08:26.462Z,67.22
2023-05-18T04:10:56.482Z,67.33
2023-05-18T04:13:30.132Z,67.54
2023-05-18T04:16:00.535Z,67.19
2023-05-18T04:18:32.600Z,67.38
2023-05-18T04:21:03.374Z,67.51
2023-05-18T04:23:34.038Z,67.64
2023-05-18T04:26:04.234Z,67.64
2023-05-18T04:28:37.884Z,68.14
2023-05-18T04:31:08.245Z,67.75
2023-05-18T04:33:38.716Z,68.18
2023-05-18T04:36:09.867Z,68.20
2023-05-18T04:38:39.830Z,68.15
2023-05-18T04:41:09.887Z,68.28
2023-05-18T04:43:42.868Z,68.67
2023-05-18T04:46:14.308Z,67.90
2023-05-18T04:48:44.301Z,68.49
2023-05-18T04:51:14.327Z,68.20
2023-05-18T04:53:46.269Z,68.36
2023-05-18T04:56:16.770Z,68.35
2023-05-18T04:58:49.682Z,68.63
2023-05-18T05:01:19.831Z,68.01
2023-05-18T05:03:49.895Z,68.18
2023-05-18T05:06:19.920Z,68.01
2023-05-18T05:08:49.832Z,67.93
2023-05-18T05:11:19.965Z,67.90
2023-05-18T05:13:52.573Z,68.03
2023-05-18T05:16:22.549Z,67.89
2023-05-18T05:18:52.728Z,67.82
2023-05-18T05:21:22.994Z,68.47
2023-05-18T05:23:53.063Z,68.42
2023-05-18T05:26:23.364Z,68.04
2023-05-18T05:28:55.898Z,68.20
2023-05-18T05:31:27.445Z,68.29
2023-05-18T05:33:57.413Z,68.26
2023-05-18T05:36:27.708Z,68.24
2023-05-18T05:38:57.729Z,68.41
2023-05-18T05:41:27.661Z,69.09
2023-05-18T05:44:00.334Z,68.30
2023-05-18T05:46:30.311Z,68.19
2023-05-18T05:49:00.739Z,68.34
2023-05-18T05:51:31.113Z,69.14
2023-05-18T05:54:01.302Z,68.38
2023-05-18T05:56:31.261Z,68.29
2023-05-18T05:59:06.516Z,68.78
2023-05-18T06:01:36.666Z,68.71
2023-05-18T06:04:10.802Z,68.99
2023-05-18T06:06:41.798Z,68.78
2023-05-18T06:09:11.955Z,68.38
2023-05-18T06:11:41.900Z,68.38
2023-05-18T06:14:14.529Z,68.12
2023-05-18T06:16:44.527Z,68.38
2023-05-18T06:19:14.456Z,67.87
2023-05-18T06:21:44.889Z,68.07
2023-05-18T06:24:14.824Z,68.12
2023-05-18T06:26:45.402Z,67.90
2023-05-18T06:29:18.016Z,67.85
2023-05-18T06:31:48.411Z,67.21
2023-05-18T06:34:18.451Z,66.17
2023-05-18T06:36:48.917Z,66.41
2023-05-18T06:39:18.919Z,65.18
2023-05-18T06:41:48.842Z,64.41
2023-05-18T06:44:21.480Z,63.75
2023-05-18T06:46:51.955Z,63.85
2023-05-18T06:49:22.189Z,63.13
2023-05-18T06:51:52.738Z,61.64
2023-05-18T06:54:22.702Z,60.70
2023-05-18T06:56:54.723Z,60.54
2023-05-18T06:59:27.270Z,60.13
2023-05-18T07:01:57.683Z,60.40
2023-05-18T07:04:27.843Z,60.94
2023-05-18T07:06:58.400Z,58.36
2023-05-18T07:09:29.065Z,58.66
2023-05-18T07:12:02.043Z,58.15
2023-05-18T07:14:34.606Z,58.01
2023-05-18T07:17:04.660Z,57.87
2023-05-18T07:19:35.440Z,57.93
2023-05-18T07:22:07.892Z,53.55
2023-05-18T07:24:37.978Z,56.36
2023-05-18T07:27:08.423Z,56.28
2023-05-18T07:29:41.237Z,55.63
2023-05-18T07:32:11.212Z,55.15
2023-05-18T07:34:42.785Z,54.01
2023-05-18T07:37:12.736Z,52.04
2023-05-18T07:39:42.748Z,53.45
2023-05-18T07:42:12.674Z,52.87
2023-05-18T07:44:45.162Z,51.17
2023-05-18T07:47:15.075Z,52.25
2023-05-18T07:49:45.164Z,52.07
2023-05-18T07:52:15.340Z,51.99
2023-05-18T07:54:45.377Z,51.25
2023-05-18T07:57:15.331Z,50.90
2023-05-18T07:59:47.996Z,49.13
2023-05-18T08:02:20.348Z,48.94
2023-05-18T08:04:51.097Z,49.60
2023-05-18T08:07:21.773Z,48.87
2023-05-18T08:09:51.773Z,48.32
2023-05-18T08:12:21.810Z,48.16
2023-05-18T08:14:54.483Z,47.49
2023-05-18T08:17:24.495Z,47.85
2023-05-18T08:19:54.631Z,47.80
2023-05-18T08:22:24.802Z,47.06
2023-05-18T08:24:55.022Z,46.93
2023-05-18T08:27:25.067Z,46.08
2023-05-18T08:29:57.723Z,42.00
2023-05-18T08:32:28.095Z,44.23
2023-05-18T08:34:58.795Z,43.30
2023-05-18T08:37:29.690Z,44.37
2023-05-18T08:39:59.907Z,44.58
2023-05-18T08:42:46.050Z,43.14
2023-05-18T08:45:26.832Z,44.21
2023-05-18T08:48:00.505Z,44.11
2023-05-18T08:50:34.377Z,42.08
2023-05-18T08:53:08.137Z,43.05
2023-05-18T08:55:38.898Z,43.43
2023-05-18T08:58:12.266Z,43.71
2023-05-18T09:00:44.950Z,43.55
2023-05-18T09:03:15.675Z,42.26
2023-05-18T09:05:45.997Z,40.70
2023-05-18T09:08:16.767Z,40.58
2023-05-18T09:10:47.095Z,41.28
2023-05-18T09:13:17.953Z,42.08
2023-05-18T09:15:53.829Z,39.96
2023-05-18T09:18:25.560Z,41.05
2023-05-18T09:20:58.358Z,41.78
2023-05-18T09:23:28.636Z,40.88
2023-05-18T09:25:59.789Z,41.35
2023-05-18T09:28:34.302Z,40.66
2023-05-18T09:31:08.017Z,37.93
2023-05-18T09:33:40.069Z,40.00
2023-05-18T09:36:12.552Z,39.16
2023-05-18T09:38:46.049Z,39.64
2023-05-18T09:41:17.834Z,39.24
2023-05-18T09:43:48.691Z,39.57
2023-05-18T09:46:22.394Z,39.32
2023-05-18T09:48:55.036Z,38.61
2023-05-18T09:51:25.762Z,38.66
2023-05-18T09:53:57.376Z,38.90
2023-05-18T09:56:30.880Z,38.29
2023-05-18T09:59:01.570Z,38.68
2023-05-18T10:01:35.090Z,36.51
2023-05-18T10:04:07.562Z,37.00
2023-05-18T10:06:37.565Z,37.86
2023-05-18T10:09:18.655Z,34.94
2023-05-18T10:11:48.634Z,36.78
2023-05-18T10:14:18.615Z,37.72
2023-05-18T10:16:55.209Z,37.66
2023-05-18T10:19:32.558Z,37.16
2023-05-18T10:22:03.127Z,37.89
2023-05-18T10:24:36.654Z,37.55
2023-05-18T10:27:10.867Z,36.72
2023-05-18T10:29:41.551Z,34.37
2023-05-18T10:32:18.049Z,34.14
2023-05-18T10:34:49.705Z,35.54
2023-05-18T10:37:20.846Z,36.84
2023-05-18T10:39:53.488Z,36.19
2023-05-18T10:42:25.205Z,35.45
2023-05-18T10:44:56.723Z,36.11
2023-05-18T10:47:32.374Z,35.72
2023-05-18T10:50:03.541Z,35.29
2023-05-18T10:52:35.119Z,34.22
2023-05-18T10:55:07.440Z,35.22
2023-05-18T10:57:42.362Z,33.75
2023-05-18T11:00:13.731Z,34.86
2023-05-18T11:02:46.847Z,35.44
2023-05-18T11:05:18.561Z,34.50
2023-05-18T11:07:50.111Z,35.70
2023-05-18T11:10:20.219Z,34.97
2023-05-18T11:12:50.136Z,35.12
2023-05-18T11:15:20.026Z,35.46
2023-05-18T11:18:18.545Z,34.07
2023-05-18T11:20:49.228Z,33.94
2023-05-18T11:23:21.092Z,35.18
2023-05-18T11:25:52.380Z,34.66
2023-05-18T11:28:25.444Z,34.77
2023-05-18T11:30:55.606Z,34.25
2023-05-18T11:33:32.940Z,33.22
2023-05-18T11:36:12.369Z,33.50
2023-05-18T11:38:50.233Z,34.22
2023-05-18T11:41:35.286Z,34.13
2023-05-18T11:44:25.256Z,32.94
2023-05-18T11:46:56.926Z,32.44
2023-05-18T11:49:30.677Z,33.14
2023-05-18T11:52:11.778Z,31.25
2023-05-18T11:54:44.345Z,33.70
2023-05-18T11:57:15.463Z,34.24
2023-05-18T11:59:47.433Z,33.79
2023-05-18T12:02:23.722Z,33.93
2023-05-18T12:04:57.980Z,32.69
2023-05-18T12:07:30.682Z,33.11
2023-05-18T12:10:02.040Z,33.40
2023-05-18T12:12:33.313Z,33.26
2023-05-18T12:15:05.614Z,33.67
2023-05-18T12:17:43.021Z,33.04
2023-05-18T12:20:17.791Z,31.54
2023-05-18T12:22:54.052Z,33.26
2023-05-18T12:25:31.555Z,32.37
2023-05-18T12:28:02.432Z,32.43
2023-05-18T12:30:35.581Z,32.19
2023-05-18T12:33:07.436Z,32.74
2023-05-18T12:35:41.065Z,31.59
2023-05-18T12:38:12.000Z,32.17
2023-05-18T12:40:49.060Z,32.34
2023-05-18T12:43:19.122Z,33.12
2023-05-18T12:45:49.286Z,32.68
2023-05-18T12:48:19.480Z,32.30
2023-05-18T12:50:53.630Z,30.76
2023-05-18T12:53:24.343Z,31.87
2023-05-18T12:56:01.975Z,31.18
2023-05-18T12:58:33.188Z,32.19
2023-05-18T13:01:13.620Z,30.65
2023-05-18T13:03:44.321Z,32.06
2023-05-18T13:06:21.904Z,31.08
2023-05-18T13:08:52.118Z,31.54
2023-05-18T13:11:22.604Z,31.34
2023-05-18T13:14:03.651Z,31.02
2023-05-18T13:16:34.121Z,32.05
2023-05-18T13:19:05.577Z,31.77
2023-05-18T13:21:39.363Z,31.63
2023-05-18T13:24:09.863Z,30.99
2023-05-18T13:26:41.129Z,31.81
2023-05-18T13:29:11.599Z,30.42
2023-05-18T13:31:41.587Z,30.99
2023-05-18T13:34:11.676Z,30.82
2023-05-18T13:36:47.088Z,30.20
2023-05-18T13:39:18.013Z,31.13
2023-05-18T13:41:47.897Z,31.36
2023-05-18T13:44:18.420Z,30.18
2023-05-18T13:46:48.383Z,30.95
2023-05-18T13:49:18.354Z,30.42
2023-05-18T13:51:51.214Z,31.11
2023-05-18T13:54:21.167Z,31.58
2023-05-18T13:56:51.488Z,30.40
2023-05-18T13:59:22.284Z,30.79
2023-05-18T14:01:54.295Z,31.08
2023-05-18T14:04:24.294Z,30.62
2023-05-18T14:06:58.535Z,29.81
2023-05-18T14:09:30.156Z,30.64
2023-05-18T14:12:02.691Z,29.74
2023-05-18T14:14:32.636Z,30.87
2023-05-18T14:17:03.186Z,31.21
2023-05-18T14:19:33.187Z,29.80
2023-05-18T14:22:05.811Z,29.78
2023-05-18T14:24:36.125Z,30.90
2023-05-18T14:27:17.628Z,30.43
2023-05-18T14:29:47.603Z,30.57
2023-05-18T14:32:17.546Z,30.47
2023-05-18T14:34:48.242Z,30.60
2023-05-18T14:37:20.944Z,30.20
2023-05-18T14:39:55.495Z,30.42
2023-05-18T14:42:25.418Z,31.13
2023-05-18T14:44:55.302Z,31.44
2023-05-18T14:47:27.599Z,30.35
2023-05-18T14:49:57.492Z,31.15
2023-05-18T14:52:30.000Z,30.97
2023-05-18T14:55:02.283Z,30.14
2023-05-18T14:57:32.511Z,29.71
2023-05-18T15:00:02.811Z,30.11
2023-05-18T15:02:32.787Z,30.79
2023-05-18T15:05:02.882Z,31.20
2023-05-18T15:07:35.557Z,31.05
2023-05-18T15:10:05.432Z,30.83
2023-05-18T15:12:35.430Z,31.62
2023-05-18T15:15:05.779Z,31.09
2023-05-18T15:17:35.628Z,30.64
2023-05-18T15:20:07.671Z,30.39
2023-05-18T15:22:41.586Z,31.26
2023-05-18T15:25:12.247Z,31.50
2023-05-18T15:27:42.162Z,31.13
2023-05-18T15:30:14.080Z,30.64
2023-05-18T15:32:45.638Z,30.75
2023-05-18T15:35:16.397Z,31.40
2023-05-18T15:37:50.368Z,31.06
2023-05-18T15:40:20.556Z,31.77
2023-05-18T15:42:50.623Z,30.95
2023-05-18T15:45:21.620Z,31.13
2023-05-18T15:47:51.996Z,31.51
2023-05-18T15:50:22.086Z,31.75
2023-05-18T15:52:56.319Z,30.30
2023-05-18T15:55:26.195Z,31.50
2023-05-18T15:57:56.656Z,31.85
2023-05-18T16:00:26.911Z,31.85
2023-05-18T16:02:56.801Z,32.17
2023-05-18T16:05:27.019Z,32.73
2023-05-18T16:07:59.933Z,31.89
2023-05-18T16:10:30.432Z,32.28
2023-05-18T16:13:06.153Z,33.21
2023-05-18T16:15:37.422Z,33.07
2023-05-18T16:18:08.131Z,32.93
2023-05-18T16:20:38.579Z,32.48
2023-05-18T16:23:13.101Z,32.13
2023-05-18T16:25:43.073Z,33.30
2023-05-18T16:28:13.052Z,32.66
2023-05-18T16:30:43.005Z,32.54
2023-05-18T16:33:17.002Z,32.79
2023-05-18T16:35:47.023Z,33.37
2023-05-18T16:38:19.797Z,33.97
2023-05-18T16:40:50.388Z,34.01
2023-05-18T16:43:20.376Z,33.51
2023-05-18T16:45:50.426Z,32.98
2023-05-18T16:48:20.442Z,33.50
2023-05-18T16:50:50.608Z,34.49
2023-05-18T16:53:23.208Z,33.39
2023-05-18T16:55:53.121Z,34.04
2023-05-18T16:58:23.090Z,33.97
2023-05-18T17:00:53.563Z,33.12
2023-05-18T17:03:23.805Z,33.87
2023-05-18T17:05:53.878Z,34.25
2023-05-18T17:08:26.417Z,33.71
2023-05-18T17:10:56.474Z,34.39
2023-05-18T17:13:26.487Z,34.54
2023-05-18T17:15:56.462Z,34.77
2023-05-18T17:18:26.397Z,34.43
2023-05-18T17:20:56.320Z,34.55
2023-05-18T17:23:28.920Z,34.96
2023-05-18T17:26:06.086Z,34.65
2023-05-18T17:28:36.726Z,35.25
2023-05-18T17:31:07.066Z,35.74
2023-05-18T17:33:37.059Z,35.76
2023-05-18T17:36:07.559Z,35.96
2023-05-18T17:38:40.140Z,35.71
2023-05-18T17:41:10.313Z,35.80
2023-05-18T17:43:40.631Z,36.03
2023-05-18T17:46:10.616Z,35.94
2023-05-18T17:48:40.555Z,36.22
2023-05-18T17:51:10.656Z,36.35
2023-05-18T17:53:43.618Z,36.86
2023-05-18T17:56:13.769Z,36.71
2023-05-18T17:58:43.844Z,36.27
2023-05-18T18:01:14.079Z,37.40
2023-05-18T18:03:44.798Z,37.15
2023-05-18T18:06:14.838Z,37.47
2023-05-18T18:08:48.016Z,37.52
2023-05-18T18:11:18.067Z,38.00
2023-05-18T18:13:48.053Z,37.82
2023-05-18T18:16:18.533Z,38.16
2023-05-18T18:18:48.966Z,38.71
2023-05-18T18:21:19.194Z,38.57
2023-05-18T18:23:51.863Z,38.61
2023-05-18T18:26:22.158Z,38.60
2023-05-18T18:28:52.166Z,39.08
2023-05-18T18:31:22.473Z,38.94
2023-05-18T18:33:52.661Z,39.76
2023-05-18T18:36:26.196Z,39.63
2023-05-18T18:38:59.132Z,40.07
2023-05-18T18:41:29.062Z,40.02
2023-05-18T18:43:59.615Z,39.90
2023-05-18T18:46:29.679Z,39.56
2023-05-18T18:48:59.668Z,39.62
2023-05-18T18:51:29.617Z,39.31
2023-05-18T18:54:02.228Z,40.29
2023-05-18T18:56:32.409Z,39.90
2023-05-18T18:59:02.356Z,39.93
2023-05-18T19:01:32.965Z,40.53
2023-05-18T19:04:02.935Z,40.88
2023-05-18T19:06:33.639Z,40.79
2023-05-18T19:09:07.898Z,40.95
2023-05-18T19:11:40.396Z,40.95
2023-05-18T19:14:10.351Z,41.44
2023-05-18T19:16:40.530Z,41.84
2023-05-18T19:19:11.560Z,41.33
2023-05-18T19:21:41.718Z,41.83
2023-05-18T19:24:15.398Z,41.94
2023-05-18T19:26:45.492Z,41.93
2023-05-18T19:29:15.722Z,42.16
2023-05-18T19:31:45.646Z,42.50
2023-05-18T19:34:15.813Z,42.71
2023-05-18T19:36:46.151Z,42.79
2023-05-18T19:39:19.702Z,43.92
2023-05-18T19:41:49.890Z,43.66
2023-05-18T19:44:19.807Z,43.41
2023-05-18T19:46:50.056Z,43.69
2023-05-18T19:49:19.983Z,44.22
2023-05-18T19:51:49.935Z,44.27
2023-05-18T19:54:22.465Z,44.90
2023-05-18T19:56:52.494Z,45.13
2023-05-18T19:59:22.838Z,45.24
2023-05-18T20:01:56.080Z,45.16
2023-05-18T20:04:28.738Z,45.00
2023-05-18T20:07:00.285Z,45.37
2023-05-18T20:09:33.481Z,45.76
2023-05-18T20:12:03.737Z,45.54
2023-05-18T20:14:33.803Z,46.01
2023-05-18T20:17:04.558Z,46.42
2023-05-18T20:19:38.006Z,46.39
2023-05-18T20:22:11.148Z,46.77
2023-05-18T20:24:44.828Z,47.09
2023-05-18T20:27:16.795Z,47.05
2023-05-18T20:29:46.846Z,47.54
2023-05-18T20:32:16.847Z,48.29
2023-05-18T20:34:47.404Z,47.85
2023-05-18T20:37:17.427Z,48.53
2023-05-18T20:39:51.436Z,48.57
2023-05-18T20:42:23.664Z,48.72
2023-05-18T20:44:55.637Z,49.08
2023-05-18T20:47:25.658Z,49.60
2023-05-18T20:49:58.734Z,49.43
2023-05-18T20:52:29.136Z,49.57
2023-05-18T20:55:01.718Z,49.92
2023-05-18T20:57:31.674Z,49.66
2023-05-18T21:00:01.847Z,50.13
2023-05-18T21:02:33.463Z,49.96
2023-05-18T21:05:04.729Z,49.80
2023-05-18T21:07:35.030Z,50.28
2023-05-18T21:10:08.436Z,51.02
2023-05-18T21:12:38.693Z,50.85
2023-05-18T21:15:12.577Z,50.76
2023-05-18T21:17:42.601Z,51.19
2023-05-18T21:20:13.570Z,51.58
2023-05-18T21:22:43.559Z,51.13
2023-05-18T21:25:18.247Z,51.56
2023-05-18T21:27:48.294Z,51.65
2023-05-18T21:30:18.631Z,51.50
2023-05-18T21:32:49.043Z,51.62
2023-05-18T21:35:19.098Z,51.63
2023-05-18T21:37:49.825Z,51.68
2023-05-18T21:40:22.549Z,51.38
2023-05-18T21:42:52.698Z,51.35
2023-05-18T21:45:23.138Z,51.60
2023-05-18T21:47:53.195Z,51.68
2023-05-18T21:50:23.236Z,51.92
2023-05-18T21:52:53.159Z,51.77
2023-05-18T21:55:26.629Z,51.78
2023-05-18T21:57:56.573Z,52.00
2023-05-18T22:00:27.091Z,52.17
2023-05-18T22:02:57.383Z,52.57
2023-05-18T22:05:27.504Z,52.43
2023-05-18T22:07:59.349Z,52.30
2023-05-18T22:10:33.008Z,52.55
2023-05-18T22:13:03.528Z,52.43
2023-05-18T22:15:33.962Z,52.34
2023-05-18T22:18:04.629Z,52.73
2023-05-18T22:20:35.726Z,52.72
2023-05-18T22:23:06.311Z,52.67
2023-05-18T22:25:39.316Z,53.55
2023-05-18T22:28:09.365Z,53.50
2023-05-18T22:30:39.288Z,53.46
2023-05-18T22:33:09.307Z,53.40
2023-05-18T22:35:39.642Z,53.57
2023-05-18T22:38:09.651Z,53.74
2023-05-18T22:40:42.335Z,54.13
2023-05-18T22:43:12.377Z,53.68
2023-05-18T22:45:42.501Z,53.98
2023-05-18T22:48:12.561Z,53.70
2023-05-18T22:50:42.745Z,54.03
2023-05-18T22:53:14.079Z,54.42
2023-05-18T22:55:46.680Z,55.48
2023-05-18T22:58:16.586Z,54.73
2023-05-18T23:00:46.607Z,54.60
2023-05-18T23:03:17.707Z,54.57
2023-05-18T23:05:51.350Z,55.20
2023-05-18T23:08:21.316Z,55.19
2023-05-18T23:10:53.981Z,55.61
2023-05-18T23:13:23.888Z,55.63
2023-05-18T23:15:56.319Z,55.63
2023-05-18T23:18:26.811Z,55.79
2023-05-18T23:20:58.828Z,55.88
2023-05-18T23:23:28.999Z,55.99
2023-05-18T23:26:01.592Z,56.38
2023-05-18T23:28:31.570Z,56.26
2023-05-18T23:31:01.624Z,56.36
2023-05-18T23:33:32.455Z,56.36
2023-05-18T23:36:05.412Z,56.69
2023-05-18T23:38:38.174Z,56.93
2023-05-18T23:41:11.852Z,57.30
2023-05-18T23:43:42.693Z,56.98
2023-05-18T23:46:14.288Z,56.98
2023-05-18T23:48:44.914Z,56.91
2023-05-18T23:51:19.470Z,57.25
2023-05-18T23:53:50.913Z,57.36
2023-05-18T23:56:25.128Z,57.54
2023-05-18T23:58:55.709Z,57.47
